sensor_id;sensor_type;location;lat;lon;timestamp;P1;P2;P0
69688;PMS5003;56932;38.402;-96.176;2023-04-15T00:01:17;3;3;
69688;PMS5003;56932;38.402;-96.176;2023-04-15T00:03:42;5;4;
69688;PMS5003;56932;38.402;-96.176;2023-04-15T00:06:07;4;4;
69688;PMS5003;56932;38.402;-96.176;2023-04-15T00:08:33;4;2;
69688;PMS5003;56932;38.402;-96.176;2023-04-15T00:10:58;7;5;
69688;PMS5003;56932;38.402;-96.176;2023-04-15T00:13:24;5;3;
69688;PMS5003;56932;38.402;-96.176;2023-04-15T00:15:50;7;4;
69688;PMS5003;56932;38.402;-96.176;2023-04-15T00:18:15;6;6;
69688;PMS5003;56932;38.402;-96.176;2023-04-15T00:20:40;5;3;
69688;PMS5003;56932;38.402;-96.176;2023-04-15T00:23:06;5;3;
69688;PMS5003;56932;38.402;-96.176;2023-04-15T00:25:31;4;4;
69688;PMS5003;56932;38.402;-96.176;2023-04-15T00:27:57;3;3;
69688;PMS5003;56932;38.402;-96.176;2023-04-15T00:30:22;5;5;
69688;PMS5003;56932;38.402;-96.176;2023-04-15T00:32:48;3;3;
69688;PMS5003;56932;38.402;-96.176;2023-04-15T00:35:13;9;4;
69688;PMS5003;56932;38.402;-96.176;2023-04-15T00:37:39;5;4;
69688;PMS5003;56932;38.402;-96.176;2023-04-15T00:40:05;6;6;
69688;PMS5003;56932;38.402;-96.176;2023-04-15T00:42:30;7;4;
69688;PMS5003;56932;38.402;-96.176;2023-04-15T00:44:55;6;5;
69688;PMS5003;56932;38.402;-96.176;2023-04-15T00:47:20;8;4;
69688;PMS5003;56932;38.402;-96.176;2023-04-15T00:49:46;5;5;
69688;PMS5003;56932;38.402;-96.176;2023-04-15T00:52:11;6;4;
69688;PMS5003;56932;38.402;-96.176;2023-04-15T00:54:36;8;7;
69688;PMS5003;56932;38.402;-96.176;2023-04-15T00:57:04;3;3;
69688;PMS5003;56932;38.402;-96.176;2023-04-15T00:59:27;5;4;
69688;PMS5003;56932;38.402;-96.176;2023-04-15T01:01:53;5;5;
69688;PMS5003;56932;38.402;-96.176;2023-04-15T01:04:18;4;4;
69688;PMS5003;56932;38.402;-96.176;2023-04-15T01:06:44;4;4;
69688;PMS5003;56932;38.402;-96.176;2023-04-15T01:09:09;5;5;
69688;PMS5003;56932;38.402;-96.176;2023-04-15T01:11:35;2;2;
69688;PMS5003;56932;38.402;-96.176;2023-04-15T01:14:00;5;4;
69688;PMS5003;56932;38.402;-96.176;2023-04-15T01:16:25;8;4;
69688;PMS5003;56932;38.402;-96.176;2023-04-15T01:18:51;8;4;
69688;PMS5003;56932;38.402;-96.176;2023-04-15T01:21:17;3;3;
69688;PMS5003;56932;38.402;-96.176;2023-04-15T01:23:41;7;6;
69688;PMS5003;56932;38.402;-96.176;2023-04-15T01:26:07;5;5;
69688;PMS5003;56932;38.402;-96.176;2023-04-15T01:28:32;5;5;
69688;PMS5003;56932;38.402;-96.176;2023-04-15T01:33:23;7;5;
69688;PMS5003;56932;38.402;-96.176;2023-04-15T01:35:49;9;8;
69688;PMS5003;56932;38.402;-96.176;2023-04-15T01:38:14;5;5;
69688;PMS5003;56932;38.402;-96.176;2023-04-15T01:40:39;7;7;
69688;PMS5003;56932;38.402;-96.176;2023-04-15T01:43:05;9;6;
69688;PMS5003;56932;38.402;-96.176;2023-04-15T01:45:30;6;6;
69688;PMS5003;56932;38.402;-96.176;2023-04-15T01:47:56;12;6;
69688;PMS5003;56932;38.402;-96.176;2023-04-15T01:50:21;6;6;
69688;PMS5003;56932;38.402;-96.176;2023-04-15T01:52:47;5;5;
69688;PMS5003;56932;38.402;-96.176;2023-04-15T01:55:12;6;6;
69688;PMS5003;56932;38.402;-96.176;2023-04-15T01:57:38;6;6;
69688;PMS5003;56932;38.402;-96.176;2023-04-15T02:00:03;8;6;
69688;PMS5003;56932;38.402;-96.176;2023-04-15T02:02:29;6;6;
69688;PMS5003;56932;38.402;-96.176;2023-04-15T02:04:54;4;4;
69688;PMS5003;56932;38.402;-96.176;2023-04-15T02:07:19;8;6;
69688;PMS5003;56932;38.402;-96.176;2023-04-15T02:09:45;7;5;
69688;PMS5003;56932;38.402;-96.176;2023-04-15T02:12:10;7;5;
69688;PMS5003;56932;38.402;-96.176;2023-04-15T02:14:36;5;5;
69688;PMS5003;56932;38.402;-96.176;2023-04-15T02:17:01;4;4;
69688;PMS5003;56932;38.402;-96.176;2023-04-15T02:19:26;5;5;
69688;PMS5003;56932;38.402;-96.176;2023-04-15T02:21:52;4;4;
69688;PMS5003;56932;38.402;-96.176;2023-04-15T02:24:17;7;4;
69688;PMS5003;56932;38.402;-96.176;2023-04-15T02:26:43;4;4;
69688;PMS5003;56932;38.402;-96.176;2023-04-15T02:29:08;7;4;
69688;PMS5003;56932;38.402;-96.176;2023-04-15T02:31:34;2;2;
69688;PMS5003;56932;38.402;-96.176;2023-04-15T02:33:59;4;4;
69688;PMS5003;56932;38.402;-96.176;2023-04-15T02:36:25;8;5;
69688;PMS5003;56932;38.402;-96.176;2023-04-15T02:38:50;6;4;
69688;PMS5003;56932;38.402;-96.176;2023-04-15T02:41:16;4;4;
69688;PMS5003;56932;38.402;-96.176;2023-04-15T02:43:41;5;4;
69688;PMS5003;56932;38.402;-96.176;2023-04-15T02:46:06;4;4;
69688;PMS5003;56932;38.402;-96.176;2023-04-15T02:48:32;4;2;
69688;PMS5003;56932;38.402;-96.176;2023-04-15T02:53:23;6;5;
69688;PMS5003;56932;38.402;-96.176;2023-04-15T02:55:48;4;4;
69688;PMS5003;56932;38.402;-96.176;2023-04-15T02:58:14;3;3;
69688;PMS5003;56932;38.402;-96.176;2023-04-15T03:00:39;4;3;
69688;PMS5003;56932;38.402;-96.176;2023-04-15T03:03:04;3;3;
69688;PMS5003;56932;38.402;-96.176;2023-04-15T03:05:30;3;3;
69688;PMS5003;56932;38.402;-96.176;2023-04-15T03:07:55;4;4;
69688;PMS5003;56932;38.402;-96.176;2023-04-15T03:10:21;4;4;
69688;PMS5003;56932;38.402;-96.176;2023-04-15T03:12:46;6;5;
69688;PMS5003;56932;38.402;-96.176;2023-04-15T03:15:12;6;4;
69688;PMS5003;56932;38.402;-96.176;2023-04-15T03:17:37;4;3;
69688;PMS5003;56932;38.402;-96.176;2023-04-15T03:20:03;3;3;
69688;PMS5003;56932;38.402;-96.176;2023-04-15T03:22:28;5;5;
69688;PMS5003;56932;38.402;-96.176;2023-04-15T03:24:53;3;3;
69688;PMS5003;56932;38.402;-96.176;2023-04-15T03:27:19;3;3;
69688;PMS5003;56932;38.402;-96.176;2023-04-15T03:29:44;4;4;
69688;PMS5003;56932;38.402;-96.176;2023-04-15T03:32:10;5;4;
69688;PMS5003;56932;38.402;-96.176;2023-04-15T03:34:35;5;4;
69688;PMS5003;56932;38.402;-96.176;2023-04-15T03:37:01;4;4;
69688;PMS5003;56932;38.402;-96.176;2023-04-15T03:39:26;5;3;
69688;PMS5003;56932;38.402;-96.176;2023-04-15T03:41:51;4;4;
69688;PMS5003;56932;38.402;-96.176;2023-04-15T03:44:17;3;3;
69688;PMS5003;56932;38.402;-96.176;2023-04-15T03:46:42;4;4;
69688;PMS5003;56932;38.402;-96.176;2023-04-15T03:49:08;3;3;
69688;PMS5003;56932;38.402;-96.176;2023-04-15T03:51:33;4;4;
69688;PMS5003;56932;38.402;-96.176;2023-04-15T03:53:59;5;5;
69688;PMS5003;56932;38.402;-96.176;2023-04-15T03:56:24;5;5;
69688;PMS5003;56932;38.402;-96.176;2023-04-15T03:58:50;5;4;
69688;PMS5003;56932;38.402;-96.176;2023-04-15T04:01:15;3;3;
69688;PMS5003;56932;38.402;-96.176;2023-04-15T04:03:40;8;5;
69688;PMS5003;56932;38.402;-96.176;2023-04-15T04:06:06;5;5;
69688;PMS5003;56932;38.402;-96.176;2023-04-15T04:08:31;4;4;
69688;PMS5003;56932;38.402;-96.176;2023-04-15T04:10:57;4;4;
69688;PMS5003;56932;38.402;-96.176;2023-04-15T04:13:22;3;3;
69688;PMS5003;56932;38.402;-96.176;2023-04-15T04:15:48;4;4;
69688;PMS5003;56932;38.402;-96.176;2023-04-15T04:18:13;9;4;
69688;PMS5003;56932;38.402;-96.176;2023-04-15T04:20:38;5;5;
69688;PMS5003;56932;38.402;-96.176;2023-04-15T04:23:04;5;5;
69688;PMS5003;56932;38.402;-96.176;2023-04-15T04:25:29;3;3;
69688;PMS5003;56932;38.402;-96.176;2023-04-15T04:27:55;4;4;
69688;PMS5003;56932;38.402;-96.176;2023-04-15T04:30:21;5;5;
69688;PMS5003;56932;38.402;-96.176;2023-04-15T04:32:46;3;3;
69688;PMS5003;56932;38.402;-96.176;2023-04-15T04:35:11;6;6;
69688;PMS5003;56932;38.402;-96.176;2023-04-15T04:37:36;3;3;
69688;PMS5003;56932;38.402;-96.176;2023-04-15T04:40:02;4;4;
69688;PMS5003;56932;38.402;-96.176;2023-04-15T04:42:27;6;6;
69688;PMS5003;56932;38.402;-96.176;2023-04-15T04:44:52;5;5;
69688;PMS5003;56932;38.402;-96.176;2023-04-15T04:47:18;4;4;
69688;PMS5003;56932;38.402;-96.176;2023-04-15T04:49:43;5;5;
69688;PMS5003;56932;38.402;-96.176;2023-04-15T04:52:09;4;4;
69688;PMS5003;56932;38.402;-96.176;2023-04-15T04:54:34;4;4;
69688;PMS5003;56932;38.402;-96.176;2023-04-15T04:57:00;4;4;
69688;PMS5003;56932;38.402;-96.176;2023-04-15T04:59:25;6;6;
69688;PMS5003;56932;38.402;-96.176;2023-04-15T05:01:51;4;4;
69688;PMS5003;56932;38.402;-96.176;2023-04-15T05:04:16;3;3;
69688;PMS5003;56932;38.402;-96.176;2023-04-15T05:06:42;5;3;
69688;PMS5003;56932;38.402;-96.176;2023-04-15T05:09:07;3;3;
69688;PMS5003;56932;38.402;-96.176;2023-04-15T05:11:32;2;2;
69688;PMS5003;56932;38.402;-96.176;2023-04-15T05:13:58;5;4;
69688;PMS5003;56932;38.402;-96.176;2023-04-15T05:16:23;3;3;
69688;PMS5003;56932;38.402;-96.176;2023-04-15T05:18:49;3;3;
69688;PMS5003;56932;38.402;-96.176;2023-04-15T05:21:14;6;4;
69688;PMS5003;56932;38.402;-96.176;2023-04-15T05:23:40;5;4;
69688;PMS5003;56932;38.402;-96.176;2023-04-15T05:26:05;4;4;
69688;PMS5003;56932;38.402;-96.176;2023-04-15T05:28:31;2;2;
69688;PMS5003;56932;38.402;-96.176;2023-04-15T05:30:56;3;3;
69688;PMS5003;56932;38.402;-96.176;2023-04-15T05:33:22;2;2;
69688;PMS5003;56932;38.402;-96.176;2023-04-15T05:35:47;2;2;
69688;PMS5003;56932;38.402;-96.176;2023-04-15T05:38:12;3;2;
69688;PMS5003;56932;38.402;-96.176;2023-04-15T05:40:38;2;2;
69688;PMS5003;56932;38.402;-96.176;2023-04-15T05:43:03;2;2;
69688;PMS5003;56932;38.402;-96.176;2023-04-15T05:45:29;4;3;
69688;PMS5003;56932;38.402;-96.176;2023-04-15T05:47:54;3;3;
69688;PMS5003;56932;38.402;-96.176;2023-04-15T05:50:20;3;3;
69688;PMS5003;56932;38.402;-96.176;2023-04-15T05:52:45;2;2;
69688;PMS5003;56932;38.402;-96.176;2023-04-15T05:55:10;6;3;
69688;PMS5003;56932;38.402;-96.176;2023-04-15T05:57:36;3;2;
69688;PMS5003;56932;38.402;-96.176;2023-04-15T06:00:02;1;1;
69688;PMS5003;56932;38.402;-96.176;2023-04-15T06:02:27;3;2;
69688;PMS5003;56932;38.402;-96.176;2023-04-15T06:04:52;3;2;
69688;PMS5003;56932;38.402;-96.176;2023-04-15T06:07:18;2;1;
69688;PMS5003;56932;38.402;-96.176;2023-04-15T06:09:43;2;2;
69688;PMS5003;56932;38.402;-96.176;2023-04-15T06:12:08;2;2;
69688;PMS5003;56932;38.402;-96.176;2023-04-15T06:14:34;1;1;
69688;PMS5003;56932;38.402;-96.176;2023-04-15T06:16:59;2;2;
69688;PMS5003;56932;38.402;-96.176;2023-04-15T06:19:24;1;1;
69688;PMS5003;56932;38.402;-96.176;2023-04-15T06:21:50;2;2;
69688;PMS5003;56932;38.402;-96.176;2023-04-15T06:24:15;1;1;
69688;PMS5003;56932;38.402;-96.176;2023-04-15T06:26:41;0;0;
69688;PMS5003;56932;38.402;-96.176;2023-04-15T06:29:06;1;1;
69688;PMS5003;56932;38.402;-96.176;2023-04-15T06:31:32;2;2;
69688;PMS5003;56932;38.402;-96.176;2023-04-15T06:33:57;1;0;
69688;PMS5003;56932;38.402;-96.176;2023-04-15T06:36:23;1;1;
69688;PMS5003;56932;38.402;-96.176;2023-04-15T06:38:48;1;1;
69688;PMS5003;56932;38.402;-96.176;2023-04-15T06:41:14;0;0;
69688;PMS5003;56932;38.402;-96.176;2023-04-15T06:43:39;1;1;
69688;PMS5003;56932;38.402;-96.176;2023-04-15T06:46:04;0;0;
69688;PMS5003;56932;38.402;-96.176;2023-04-15T06:48:30;0;0;
69688;PMS5003;56932;38.402;-96.176;2023-04-15T06:50:55;1;1;
69688;PMS5003;56932;38.402;-96.176;2023-04-15T06:53:21;2;1;
69688;PMS5003;56932;38.402;-96.176;2023-04-15T06:55:46;1;1;
69688;PMS5003;56932;38.402;-96.176;2023-04-15T06:58:12;2;2;
69688;PMS5003;56932;38.402;-96.176;2023-04-15T07:00:37;1;1;
69688;PMS5003;56932;38.402;-96.176;2023-04-15T07:03:03;2;1;
69688;PMS5003;56932;38.402;-96.176;2023-04-15T07:05:28;1;1;
69688;PMS5003;56932;38.402;-96.176;2023-04-15T07:07:54;0;0;
69688;PMS5003;56932;38.402;-96.176;2023-04-15T07:10:19;2;1;
69688;PMS5003;56932;38.402;-96.176;2023-04-15T07:12:45;1;1;
69688;PMS5003;56932;38.402;-96.176;2023-04-15T07:15:10;1;1;
69688;PMS5003;56932;38.402;-96.176;2023-04-15T07:17:36;0;0;
69688;PMS5003;56932;38.402;-96.176;2023-04-15T07:20:01;2;2;
69688;PMS5003;56932;38.402;-96.176;2023-04-15T07:22:26;1;1;
69688;PMS5003;56932;38.402;-96.176;2023-04-15T07:24:52;1;1;
69688;PMS5003;56932;38.402;-96.176;2023-04-15T07:27:17;1;1;
69688;PMS5003;56932;38.402;-96.176;2023-04-15T07:29:43;0;0;
69688;PMS5003;56932;38.402;-96.176;2023-04-15T07:32:08;1;1;
69688;PMS5003;56932;38.402;-96.176;2023-04-15T07:34:34;1;0;
69688;PMS5003;56932;38.402;-96.176;2023-04-15T07:36:59;1;1;
69688;PMS5003;56932;38.402;-96.176;2023-04-15T07:39:25;1;1;
69688;PMS5003;56932;38.402;-96.176;2023-04-15T07:41:51;0;0;
69688;PMS5003;56932;38.402;-96.176;2023-04-15T07:44:16;1;0;
69688;PMS5003;56932;38.402;-96.176;2023-04-15T07:46:41;3;1;
69688;PMS5003;56932;38.402;-96.176;2023-04-15T07:49:07;1;1;
69688;PMS5003;56932;38.402;-96.176;2023-04-15T07:51:32;0;0;
69688;PMS5003;56932;38.402;-96.176;2023-04-15T07:53:58;2;1;
69688;PMS5003;56932;38.402;-96.176;2023-04-15T07:56:23;1;1;
69688;PMS5003;56932;38.402;-96.176;2023-04-15T07:58:49;1;1;
69688;PMS5003;56932;38.402;-96.176;2023-04-15T08:01:14;1;1;
69688;PMS5003;56932;38.402;-96.176;2023-04-15T08:03:40;1;1;
69688;PMS5003;56932;38.402;-96.176;2023-04-15T08:06:05;1;1;
69688;PMS5003;56932;38.402;-96.176;2023-04-15T08:08:31;1;1;
69688;PMS5003;56932;38.402;-96.176;2023-04-15T08:10:56;1;1;
69688;PMS5003;56932;38.402;-96.176;2023-04-15T08:13:21;4;0;
69688;PMS5003;56932;38.402;-96.176;2023-04-15T08:15:56;1;1;
69688;PMS5003;56932;38.402;-96.176;2023-04-15T08:18:12;0;0;
69688;PMS5003;56932;38.402;-96.176;2023-04-15T08:20:38;1;1;
69688;PMS5003;56932;38.402;-96.176;2023-04-15T08:23:03;8;1;
69688;PMS5003;56932;38.402;-96.176;2023-04-15T08:25:29;0;0;
69688;PMS5003;56932;38.402;-96.176;2023-04-15T08:27:55;1;0;
69688;PMS5003;56932;38.402;-96.176;2023-04-15T08:30:20;0;0;
69688;PMS5003;56932;38.402;-96.176;2023-04-15T08:32:45;1;1;
69688;PMS5003;56932;38.402;-96.176;2023-04-15T08:35:11;1;1;
69688;PMS5003;56932;38.402;-96.176;2023-04-15T08:37:36;2;1;
69688;PMS5003;56932;38.402;-96.176;2023-04-15T08:40:02;2;2;
69688;PMS5003;56932;38.402;-96.176;2023-04-15T08:42:30;2;1;
69688;PMS5003;56932;38.402;-96.176;2023-04-15T08:44:52;0;0;
69688;PMS5003;56932;38.402;-96.176;2023-04-15T08:47:19;2;2;
69688;PMS5003;56932;38.402;-96.176;2023-04-15T08:49:43;1;1;
69688;PMS5003;56932;38.402;-96.176;2023-04-15T08:52:09;0;0;
69688;PMS5003;56932;38.402;-96.176;2023-04-15T08:54:34;2;1;
69688;PMS5003;56932;38.402;-96.176;2023-04-15T08:57:00;1;1;
69688;PMS5003;56932;38.402;-96.176;2023-04-15T08:59:25;1;1;
69688;PMS5003;56932;38.402;-96.176;2023-04-15T09:01:51;0;0;
69688;PMS5003;56932;38.402;-96.176;2023-04-15T09:04:16;1;1;
69688;PMS5003;56932;38.402;-96.176;2023-04-15T09:06:41;0;0;
69688;PMS5003;56932;38.402;-96.176;2023-04-15T09:09:07;1;1;
69688;PMS5003;56932;38.402;-96.176;2023-04-15T09:11:32;3;1;
69688;PMS5003;56932;38.402;-96.176;2023-04-15T09:13:58;3;2;
69688;PMS5003;56932;38.402;-96.176;2023-04-15T09:16:24;3;1;
69688;PMS5003;56932;38.402;-96.176;2023-04-15T09:18:50;2;1;
69688;PMS5003;56932;38.402;-96.176;2023-04-15T09:21:15;1;1;
69688;PMS5003;56932;38.402;-96.176;2023-04-15T09:23:41;1;1;
69688;PMS5003;56932;38.402;-96.176;2023-04-15T09:26:06;1;1;
69688;PMS5003;56932;38.402;-96.176;2023-04-15T09:28:31;0;0;
69688;PMS5003;56932;38.402;-96.176;2023-04-15T09:30:57;1;1;
69688;PMS5003;56932;38.402;-96.176;2023-04-15T09:33:22;3;0;
69688;PMS5003;56932;38.402;-96.176;2023-04-15T09:38:13;1;1;
69688;PMS5003;56932;38.402;-96.176;2023-04-15T09:40:39;0;0;
69688;PMS5003;56932;38.402;-96.176;2023-04-15T09:43:04;2;1;
69688;PMS5003;56932;38.402;-96.176;2023-04-15T09:45:30;3;2;
69688;PMS5003;56932;38.402;-96.176;2023-04-15T09:47:56;1;1;
69688;PMS5003;56932;38.402;-96.176;2023-04-15T09:50:20;0;0;
69688;PMS5003;56932;38.402;-96.176;2023-04-15T09:52:46;0;0;
69688;PMS5003;56932;38.402;-96.176;2023-04-15T09:55:11;1;1;
69688;PMS5003;56932;38.402;-96.176;2023-04-15T09:57:37;1;1;
69688;PMS5003;56932;38.402;-96.176;2023-04-15T10:00:02;0;0;
69688;PMS5003;56932;38.402;-96.176;2023-04-15T10:02:27;0;0;
69688;PMS5003;56932;38.402;-96.176;2023-04-15T10:04:53;1;1;
69688;PMS5003;56932;38.402;-96.176;2023-04-15T10:07:19;3;2;
69688;PMS5003;56932;38.402;-96.176;2023-04-15T10:09:44;0;0;
69688;PMS5003;56932;38.402;-96.176;2023-04-15T10:12:09;0;0;
69688;PMS5003;56932;38.402;-96.176;2023-04-15T10:14:35;2;1;
69688;PMS5003;56932;38.402;-96.176;2023-04-15T10:17:01;1;1;
69688;PMS5003;56932;38.402;-96.176;2023-04-15T10:19:25;1;1;
69688;PMS5003;56932;38.402;-96.176;2023-04-15T10:21:51;0;0;
69688;PMS5003;56932;38.402;-96.176;2023-04-15T10:24:17;0;0;
69688;PMS5003;56932;38.402;-96.176;2023-04-15T10:26:42;1;1;
69688;PMS5003;56932;38.402;-96.176;2023-04-15T10:29:07;3;2;
69688;PMS5003;56932;38.402;-96.176;2023-04-15T10:31:33;0;0;
69688;PMS5003;56932;38.402;-96.176;2023-04-15T10:33:58;1;1;
69688;PMS5003;56932;38.402;-96.176;2023-04-15T10:36:24;1;1;
69688;PMS5003;56932;38.402;-96.176;2023-04-15T10:38:49;0;0;
69688;PMS5003;56932;38.402;-96.176;2023-04-15T10:41:15;3;1;
69688;PMS5003;56932;38.402;-96.176;2023-04-15T10:43:44;0;0;
69688;PMS5003;56932;38.402;-96.176;2023-04-15T10:46:05;1;1;
69688;PMS5003;56932;38.402;-96.176;2023-04-15T10:48:31;1;1;
69688;PMS5003;56932;38.402;-96.176;2023-04-15T10:50:57;1;1;
69688;PMS5003;56932;38.402;-96.176;2023-04-15T10:53:26;2;2;
69688;PMS5003;56932;38.402;-96.176;2023-04-15T10:55:47;1;1;
69688;PMS5003;56932;38.402;-96.176;2023-04-15T10:58:13;0;0;
69688;PMS5003;56932;38.402;-96.176;2023-04-15T11:00:38;0;0;
69688;PMS5003;56932;38.402;-96.176;2023-04-15T11:03:04;1;1;
69688;PMS5003;56932;38.402;-96.176;2023-04-15T11:07:55;1;1;
69688;PMS5003;56932;38.402;-96.176;2023-04-15T11:12:46;0;0;
69688;PMS5003;56932;38.402;-96.176;2023-04-15T11:17:37;0;0;
69688;PMS5003;56932;38.402;-96.176;2023-04-15T11:20:03;0;0;
69688;PMS5003;56932;38.402;-96.176;2023-04-15T11:22:28;0;0;
69688;PMS5003;56932;38.402;-96.176;2023-04-15T11:24:53;1;1;
69688;PMS5003;56932;38.402;-96.176;2023-04-15T11:27:20;0;0;
69688;PMS5003;56932;38.402;-96.176;2023-04-15T11:29:44;1;1;
69688;PMS5003;56932;38.402;-96.176;2023-04-15T11:32:10;1;1;
69688;PMS5003;56932;38.402;-96.176;2023-04-15T11:34:35;0;0;
69688;PMS5003;56932;38.402;-96.176;2023-04-15T11:37:02;1;1;
69688;PMS5003;56932;38.402;-96.176;2023-04-15T11:39:28;1;1;
69688;PMS5003;56932;38.402;-96.176;2023-04-15T11:41:52;0;0;
69688;PMS5003;56932;38.402;-96.176;2023-04-15T11:44:17;0;0;
69688;PMS5003;56932;38.402;-96.176;2023-04-15T11:46:42;1;1;
69688;PMS5003;56932;38.402;-96.176;2023-04-15T11:49:08;0;0;
69688;PMS5003;56932;38.402;-96.176;2023-04-15T11:51:34;0;0;
69688;PMS5003;56932;38.402;-96.176;2023-04-15T11:53:59;8;2;
69688;PMS5003;56932;38.402;-96.176;2023-04-15T11:56:24;3;1;
69688;PMS5003;56932;38.402;-96.176;2023-04-15T11:58:51;1;1;
69688;PMS5003;56932;38.402;-96.176;2023-04-15T12:01:15;0;0;
69688;PMS5003;56932;38.402;-96.176;2023-04-15T12:03:41;0;0;
69688;PMS5003;56932;38.402;-96.176;2023-04-15T12:06:08;1;1;
69688;PMS5003;56932;38.402;-96.176;2023-04-15T12:10:58;2;1;
69688;PMS5003;56932;38.402;-96.176;2023-04-15T12:13:22;0;0;
69688;PMS5003;56932;38.402;-96.176;2023-04-15T12:15:48;1;1;
69688;PMS5003;56932;38.402;-96.176;2023-04-15T12:18:17;0;0;
69688;PMS5003;56932;38.402;-96.176;2023-04-15T12:20:42;2;1;
69688;PMS5003;56932;38.402;-96.176;2023-04-15T12:23:05;0;0;
69688;PMS5003;56932;38.402;-96.176;2023-04-15T12:25:33;1;0;
69688;PMS5003;56932;38.402;-96.176;2023-04-15T12:27:56;1;1;
69688;PMS5003;56932;38.402;-96.176;2023-04-15T12:30:21;0;0;
69688;PMS5003;56932;38.402;-96.176;2023-04-15T12:32:46;0;0;
69688;PMS5003;56932;38.402;-96.176;2023-04-15T12:35:12;0;0;
69688;PMS5003;56932;38.402;-96.176;2023-04-15T12:37:37;2;1;
69688;PMS5003;56932;38.402;-96.176;2023-04-15T12:40:03;1;1;
69688;PMS5003;56932;38.402;-96.176;2023-04-15T12:42:28;0;0;
69688;PMS5003;56932;38.402;-96.176;2023-04-15T12:44:54;1;1;
69688;PMS5003;56932;38.402;-96.176;2023-04-15T12:47:19;1;1;
69688;PMS5003;56932;38.402;-96.176;2023-04-15T12:49:44;1;1;
69688;PMS5003;56932;38.402;-96.176;2023-04-15T12:52:10;1;1;
69688;PMS5003;56932;38.402;-96.176;2023-04-15T12:54:36;0;0;
69688;PMS5003;56932;38.402;-96.176;2023-04-15T12:57:01;1;1;
69688;PMS5003;56932;38.402;-96.176;2023-04-15T12:59:26;1;1;
69688;PMS5003;56932;38.402;-96.176;2023-04-15T13:01:52;0;0;
69688;PMS5003;56932;38.402;-96.176;2023-04-15T13:04:18;0;0;
69688;PMS5003;56932;38.402;-96.176;2023-04-15T13:06:43;1;1;
69688;PMS5003;56932;38.402;-96.176;2023-04-15T13:09:08;1;1;
69688;PMS5003;56932;38.402;-96.176;2023-04-15T13:11:34;0;0;
69688;PMS5003;56932;38.402;-96.176;2023-04-15T13:14:00;2;1;
69688;PMS5003;56932;38.402;-96.176;2023-04-15T13:16:25;0;0;
69688;PMS5003;56932;38.402;-96.176;2023-04-15T13:18:50;0;0;
69688;PMS5003;56932;38.402;-96.176;2023-04-15T13:21:15;1;1;
69688;PMS5003;56932;38.402;-96.176;2023-04-15T13:23:41;1;1;
69688;PMS5003;56932;38.402;-96.176;2023-04-15T13:26:07;2;1;
69688;PMS5003;56932;38.402;-96.176;2023-04-15T13:28:32;0;0;
69688;PMS5003;56932;38.402;-96.176;2023-04-15T13:30:57;1;0;
69688;PMS5003;56932;38.402;-96.176;2023-04-15T13:33:23;2;1;
69688;PMS5003;56932;38.402;-96.176;2023-04-15T13:35:48;1;1;
69688;PMS5003;56932;38.402;-96.176;2023-04-15T13:38:14;3;2;
69688;PMS5003;56932;38.402;-96.176;2023-04-15T13:40:39;1;1;
69688;PMS5003;56932;38.402;-96.176;2023-04-15T13:43:05;1;1;
69688;PMS5003;56932;38.402;-96.176;2023-04-15T13:47:56;1;1;
69688;PMS5003;56932;38.402;-96.176;2023-04-15T13:50:21;1;1;
69688;PMS5003;56932;38.402;-96.176;2023-04-15T13:52:47;1;1;
69688;PMS5003;56932;38.402;-96.176;2023-04-15T13:55:12;1;1;
69688;PMS5003;56932;38.402;-96.176;2023-04-15T13:57:38;1;1;
69688;PMS5003;56932;38.402;-96.176;2023-04-15T14:00:03;0;0;
69688;PMS5003;56932;38.402;-96.176;2023-04-15T14:02:29;0;0;
69688;PMS5003;56932;38.402;-96.176;2023-04-15T14:04:54;0;0;
69688;PMS5003;56932;38.402;-96.176;2023-04-15T14:07:19;5;1;
69688;PMS5003;56932;38.402;-96.176;2023-04-15T14:09:45;0;0;
69688;PMS5003;56932;38.402;-96.176;2023-04-15T14:12:10;1;1;
69688;PMS5003;56932;38.402;-96.176;2023-04-15T14:14:36;1;1;
69688;PMS5003;56932;38.402;-96.176;2023-04-15T14:17:02;3;3;
69688;PMS5003;56932;38.402;-96.176;2023-04-15T14:19:28;1;1;
69688;PMS5003;56932;38.402;-96.176;2023-04-15T14:21:53;1;1;
69688;PMS5003;56932;38.402;-96.176;2023-04-15T14:24:18;1;1;
69688;PMS5003;56932;38.402;-96.176;2023-04-15T14:26:43;0;0;
69688;PMS5003;56932;38.402;-96.176;2023-04-15T14:29:09;1;1;
69688;PMS5003;56932;38.402;-96.176;2023-04-15T14:31:34;1;1;
69688;PMS5003;56932;38.402;-96.176;2023-04-15T14:34:00;0;0;
69688;PMS5003;56932;38.402;-96.176;2023-04-15T14:36:25;0;0;
69688;PMS5003;56932;38.402;-96.176;2023-04-15T14:38:51;1;1;
69688;PMS5003;56932;38.402;-96.176;2023-04-15T14:41:16;1;1;
69688;PMS5003;56932;38.402;-96.176;2023-04-15T14:43:42;0;0;
69688;PMS5003;56932;38.402;-96.176;2023-04-15T14:46:07;0;0;
69688;PMS5003;56932;38.402;-96.176;2023-04-15T14:48:32;2;2;
69688;PMS5003;56932;38.402;-96.176;2023-04-15T14:50:58;1;1;
69688;PMS5003;56932;38.402;-96.176;2023-04-15T14:53:24;1;1;
69688;PMS5003;56932;38.402;-96.176;2023-04-15T14:55:49;1;1;
69688;PMS5003;56932;38.402;-96.176;2023-04-15T14:58:15;3;3;
69688;PMS5003;56932;38.402;-96.176;2023-04-15T15:00:40;1;1;
69688;PMS5003;56932;38.402;-96.176;2023-04-15T15:03:06;2;1;
69688;PMS5003;56932;38.402;-96.176;2023-04-15T15:05:31;3;2;
69688;PMS5003;56932;38.402;-96.176;2023-04-15T15:07:57;1;1;
69688;PMS5003;56932;38.402;-96.176;2023-04-15T15:10:22;2;2;
69688;PMS5003;56932;38.402;-96.176;2023-04-15T15:12:47;0;0;
69688;PMS5003;56932;38.402;-96.176;2023-04-15T15:15:13;1;1;
69688;PMS5003;56932;38.402;-96.176;2023-04-15T15:17:38;1;0;
69688;PMS5003;56932;38.402;-96.176;2023-04-15T15:20:04;2;2;
69688;PMS5003;56932;38.402;-96.176;2023-04-15T15:22:29;0;0;
69688;PMS5003;56932;38.402;-96.176;2023-04-15T15:24:55;1;1;
69688;PMS5003;56932;38.402;-96.176;2023-04-15T15:27:21;2;2;
69688;PMS5003;56932;38.402;-96.176;2023-04-15T15:29:46;1;1;
69688;PMS5003;56932;38.402;-96.176;2023-04-15T15:32:11;0;0;
69688;PMS5003;56932;38.402;-96.176;2023-04-15T15:34:37;1;1;
69688;PMS5003;56932;38.402;-96.176;2023-04-15T15:37:02;0;0;
69688;PMS5003;56932;38.402;-96.176;2023-04-15T15:39:28;0;0;
69688;PMS5003;56932;38.402;-96.176;2023-04-15T15:41:54;1;1;
69688;PMS5003;56932;38.402;-96.176;2023-04-15T15:44:19;2;1;
69688;PMS5003;56932;38.402;-96.176;2023-04-15T15:46:44;2;2;
69688;PMS5003;56932;38.402;-96.176;2023-04-15T15:49:09;2;1;
69688;PMS5003;56932;38.402;-96.176;2023-04-15T15:51:35;2;1;
69688;PMS5003;56932;38.402;-96.176;2023-04-15T15:54:01;2;2;
69688;PMS5003;56932;38.402;-96.176;2023-04-15T15:56:26;3;1;
69688;PMS5003;56932;38.402;-96.176;2023-04-15T15:58:51;0;0;
69688;PMS5003;56932;38.402;-96.176;2023-04-15T16:01:17;2;2;
69688;PMS5003;56932;38.402;-96.176;2023-04-15T16:03:42;3;2;
69688;PMS5003;56932;38.402;-96.176;2023-04-15T16:06:08;2;2;
69688;PMS5003;56932;38.402;-96.176;2023-04-15T16:08:33;3;2;
69688;PMS5003;56932;38.402;-96.176;2023-04-15T16:10:59;4;1;
69688;PMS5003;56932;38.402;-96.176;2023-04-15T16:13:24;1;1;
69688;PMS5003;56932;38.402;-96.176;2023-04-15T16:15:50;2;2;
69688;PMS5003;56932;38.402;-96.176;2023-04-15T16:18:15;2;1;
69688;PMS5003;56932;38.402;-96.176;2023-04-15T16:20:41;1;1;
69688;PMS5003;56932;38.402;-96.176;2023-04-15T16:23:08;1;1;
69688;PMS5003;56932;38.402;-96.176;2023-04-15T16:25:32;1;1;